Time;durP1;ratioP1;P1;durP2;ratioP2;P2;SDS_P1;SDS_P2;PMS_P1;PMS_P2;Temp;Humidity;BMP_temperature;BMP_pressure;BME280_temperature;BME280_humidity;BME280_pressure;Samples;Min_cycle;Max_cycle;Signal;HPM_P1;HPM_P2
2022/07/12 00:02:05;;;;;;;5.68;5.18;;;13.80;83.30;;;;;;5036039;28;20217;-87
2022/07/12 00:04:31;;;;;;;6.25;5.65;;;13.80;83.10;;;;;;5051542;28;20173;-86
2022/07/12 00:06:56;;;;;;;5.75;5.25;;;13.80;83.30;;;;;;5035658;28;20179;-86
2022/07/12 00:09:22;;;;;;;6.50;5.80;;;13.80;83.10;;;;;;5034699;28;20184;-86
2022/07/12 00:11:47;;;;;;;6.07;5.50;;;13.80;83.20;;;;;;5035986;28;20188;-86
2022/07/12 00:14:13;;;;;;;7.13;6.05;;;13.70;83.10;;;;;;5034528;28;20173;-86
2022/07/12 00:16:39;;;;;;;5.30;4.87;;;13.70;83.10;;;;;;5036650;28;20172;-86
2022/07/12 00:19:05;;;;;;;5.47;4.97;;;13.70;82.80;;;;;;5051210;28;20554;-87
2022/07/12 00:21:30;;;;;;;6.93;5.77;;;13.70;82.70;;;;;;5051588;28;20745;-86
2022/07/12 00:23:56;;;;;;;5.70;5.20;;;13.60;82.70;;;;;;5050926;28;20264;-86
2022/07/12 00:26:22;;;;;;;5.30;4.80;;;13.50;82.90;;;;;;5051036;28;20509;-86
2022/07/12 00:28:48;;;;;;;4.70;4.27;;;13.50;83.50;;;;;;5050780;28;20242;-86
2022/07/12 00:31:13;;;;;;;4.60;4.20;;;13.50;84.00;;;;;;5035816;28;20675;-87
2022/07/12 00:33:39;;;;;;;4.60;4.20;;;13.50;84.40;;;;;;5034358;28;20182;-87
2022/07/12 00:36:05;;;;;;;3.97;3.67;;;13.40;84.00;;;;;;5035433;28;20673;-86
2022/07/12 00:38:31;;;;;;;4.13;3.83;;;13.20;84.40;;;;;;5035273;28;20176;-86
2022/07/12 00:40:56;;;;;;;5.03;4.63;;;13.10;85.40;;;;;;5034907;28;20208;-86
2022/07/12 00:43:22;;;;;;;4.43;3.93;;;13.10;85.40;;;;;;5050319;28;20243;-86
2022/07/12 00:45:47;;;;;;;5.30;4.87;;;13.20;85.00;;;;;;5050512;28;20208;-86
2022/07/12 00:48:13;;;;;;;5.17;4.67;;;13.20;84.90;;;;;;5035109;28;20169;-86
2022/07/12 00:50:39;;;;;;;4.47;4.07;;;13.20;85.60;;;;;;5050360;28;20188;-86
2022/07/12 00:53:05;;;;;;;4.30;4.00;;;13.10;85.40;;;;;;5034929;28;20220;-86
2022/07/12 00:55:31;;;;;;;4.13;3.60;;;13.10;85.00;;;;;;5049812;28;20561;-86
2022/07/12 00:57:57;;;;;;;5.50;4.40;;;13.20;84.80;;;;;;5034722;28;20216;-85
2022/07/12 01:00:25;;;;;;;5.57;5.00;;;13.10;84.50;;;;;;5050330;28;20227;-86
2022/07/12 01:02:52;;;;;;;5.83;5.23;;;13.10;84.60;;;;;;5033616;28;20287;-87
2022/07/12 01:05:18;;;;;;;7.37;4.60;;;12.90;85.40;;;;;;5050145;28;20742;-86
2022/07/12 01:07:45;;;;;;;12.03;4.27;;;12.90;85.70;;;;;;5035218;28;20200;-86
2022/07/12 01:10:10;;;;;;;10.50;4.40;;;12.90;85.60;;;;;;5050991;28;20694;-87
2022/07/12 01:12:36;;;;;;;5.03;3.90;;;12.90;85.80;;;;;;5033511;28;20212;-87
2022/07/12 01:15:05;;;;;;;5.33;4.10;;;12.90;85.40;;;;;;5034556;28;20172;-85
2022/07/12 01:17:31;;;;;;;6.27;5.00;;;12.90;85.20;;;;;;5050016;28;20177;-87
2022/07/12 01:19:58;;;;;;;6.97;3.77;;;12.90;85.60;;;;;;5049860;28;20227;-87
2022/07/12 01:22:27;;;;;;;5.13;3.83;;;12.80;86.20;;;;;;5049524;28;20193;-87
2022/07/12 01:24:53;;;;;;;3.83;3.53;;;12.80;86.60;;;;;;5034159;28;20167;-87
2022/07/12 01:27:19;;;;;;;4.17;3.87;;;12.80;87.30;;;;;;5049488;28;20259;-88
2022/07/12 01:29:44;;;;;;;5.23;4.00;;;12.80;87.70;;;;;;5049336;28;20173;-88
2022/07/12 01:32:30;;;;;;;4.23;3.90;;;12.80;88.00;;;;;;5049281;28;20192;-87
2022/07/12 01:34:58;;;;;;;5.63;3.53;;;12.60;88.30;;;;;;5049344;28;20180;-87
2022/07/12 01:37:25;;;;;;;5.23;4.03;;;12.50;88.50;;;;;;5033859;28;20188;-88
2022/07/12 01:39:53;;;;;;;4.67;3.93;;;12.60;88.60;;;;;;5033687;28;20295;-88
2022/07/12 01:42:21;;;;;;;7.60;4.10;;;12.60;88.50;;;;;;5049452;28;20196;-88
2022/07/12 01:44:49;;;;;;;4.80;3.93;;;12.60;88.70;;;;;;5033934;28;20168;-87
2022/07/12 01:47:14;;;;;;;8.73;3.87;;;12.60;88.60;;;;;;5033860;28;20260;-87
2022/07/12 01:49:40;;;;;;;8.70;4.37;;;12.50;88.50;;;;;;5033795;28;20212;-87
2022/07/12 01:52:06;;;;;;;5.13;4.23;;;12.50;88.40;;;;;;5049064;28;20250;-87
2022/07/12 01:54:32;;;;;;;7.23;3.77;;;12.40;88.50;;;;;;5033712;28;20173;-87
2022/07/12 01:56:58;;;;;;;132.47;7.13;;;12.40;88.40;;;;;;5049018;28;20597;-88
2022/07/12 01:59:24;;;;;;;71.27;7.57;;;12.40;88.50;;;;;;5048935;28;20287;-88
2022/07/12 02:01:49;;;;;;;58.23;6.00;;;12.40;88.60;;;;;;5048744;28;20274;-87
2022/07/12 02:04:18;;;;;;;44.90;3.40;;;12.30;88.80;;;;;;5033524;28;20184;-87
2022/07/12 02:06:45;;;;;;;60.07;4.10;;;12.30;89.10;;;;;;5033168;28;20168;-87
2022/07/12 02:09:12;;;;;;;79.40;4.13;;;12.30;89.40;;;;;;5032064;28;20181;-88
2022/07/12 02:11:37;;;;;;;43.83;3.80;;;12.30;89.50;;;;;;5048837;28;20201;-88
2022/07/12 02:14:03;;;;;;;49.10;3.37;;;12.30;89.70;;;;;;5048853;28;20267;-87
2022/07/12 02:16:28;;;;;;;46.43;3.27;;;12.30;89.50;;;;;;5032196;28;20238;-88
2022/07/12 02:18:54;;;;;;;10.43;2.80;;;12.30;89.30;;;;;;5033206;28;20311;-87
2022/07/12 02:21:19;;;;;;;42.43;3.43;;;12.30;89.30;;;;;;5048732;28;20207;-87
2022/07/12 02:23:45;;;;;;;38.87;3.83;;;12.30;89.10;;;;;;5032046;28;20299;-87
2022/07/12 02:26:10;;;;;;;57.63;4.20;;;12.30;88.90;;;;;;5032049;28;20226;-87
2022/07/12 02:28:36;;;;;;;25.00;3.10;;;12.30;89.00;;;;;;5031950;28;20241;-87
2022/07/12 02:31:02;;;;;;;67.37;4.10;;;12.30;89.00;;;;;;5031991;28;20591;-88
2022/07/12 02:33:28;;;;;;;83.63;5.03;;;12.20;89.10;;;;;;5031953;28;20181;-87
2022/07/12 02:35:53;;;;;;;31.73;3.60;;;12.20;89.40;;;;;;5031839;28;20229;-88
2022/07/12 02:38:21;;;;;;;11.60;3.30;;;12.20;89.30;;;;;;5048547;28;20557;-88
2022/07/12 02:40:53;;;;;;;14.80;4.40;;;12.20;89.20;;;;;;5032862;28;20292;-87
2022/07/12 02:43:22;;;;;;;13.60;5.07;;;12.10;89.10;;;;;;5033104;28;20160;-88
2022/07/12 02:45:47;;;;;;;5.77;4.13;;;12.20;89.60;;;;;;5033021;28;20254;-88
2022/07/12 02:48:13;;;;;;;13.13;4.97;;;12.30;89.70;;;;;;5048337;28;20208;-87
2022/07/12 02:50:40;;;;;;;5.67;5.10;;;12.20;89.60;;;;;;5048472;28;20188;-88
2022/07/12 02:53:06;;;;;;;15.60;6.90;;;12.30;89.80;;;;;;5048460;28;20204;-88
2022/07/12 02:55:33;;;;;;;10.97;8.10;;;12.30;89.80;;;;;;5048542;28;20217;-87
2022/07/12 02:57:58;;;;;;;14.00;7.27;;;12.30;90.30;;;;;;5033048;28;20173;-89
2022/07/12 03:00:24;;;;;;;16.70;7.80;;;12.40;90.80;;;;;;5032910;28;20621;-88
2022/07/12 03:02:49;;;;;;;17.07;8.80;;;12.50;91.00;;;;;;5048204;28;20550;-88
2022/07/12 03:05:15;;;;;;;13.70;9.10;;;12.50;91.20;;;;;;5048240;28;20705;-90
2022/07/12 03:07:41;;;;;;;10.87;7.77;;;12.60;91.70;;;;;;5033071;28;20256;-89
2022/07/12 03:10:07;;;;;;;12.77;8.23;;;12.80;92.10;;;;;;5048380;28;20176;-88
2022/07/12 03:12:33;;;;;;;21.10;8.60;;;12.90;92.30;;;;;;5048224;28;20207;-88
2022/07/12 03:14:59;;;;;;;14.73;8.20;;;12.80;92.30;;;;;;5048438;28;20184;-88
2022/07/12 03:17:25;;;;;;;17.90;8.77;;;12.90;92.40;;;;;;5032786;28;20177;-88
2022/07/12 03:19:50;;;;;;;10.50;8.47;;;12.90;92.50;;;;;;5034366;28;20291;-88
2022/07/12 03:22:16;;;;;;;17.90;8.13;;;13.00;92.50;;;;;;5051732;28;20206;-88
2022/07/12 03:24:41;;;;;;;18.87;9.23;;;13.10;92.70;;;;;;5051776;28;20255;-88
2022/07/12 03:27:07;;;;;;;12.17;8.17;;;13.30;92.80;;;;;;5036470;28;20607;-88
2022/07/12 03:29:33;;;;;;;15.77;8.90;;;13.40;92.80;;;;;;5036581;28;20179;-89
2022/07/12 03:31:58;;;;;;;17.97;8.20;;;13.50;92.90;;;;;;5051665;28;20288;-88
2022/07/12 03:34:24;;;;;;;15.50;8.93;;;13.50;93.00;;;;;;5051504;28;20538;-88
2022/07/12 03:36:49;;;;;;;17.93;8.50;;;13.50;93.00;;;;;;5051465;28;20189;-88
2022/07/12 03:39:15;;;;;;;13.47;8.27;;;13.50;93.00;;;;;;5051602;28;20208;-89
2022/07/12 03:41:41;;;;;;;22.50;8.40;;;13.60;93.00;;;;;;5034768;28;20262;-89
2022/07/12 03:44:06;;;;;;;20.03;8.63;;;13.60;93.00;;;;;;5051483;28;20231;-88
2022/07/12 03:46:35;;;;;;;20.83;8.40;;;13.60;92.90;;;;;;5051416;28;20216;-88
2022/07/12 03:49:00;;;;;;;14.50;7.93;;;13.60;93.00;;;;;;5034766;28;20577;-88
2022/07/12 03:51:26;;;;;;;11.00;7.13;;;13.60;92.90;;;;;;5051330;28;20201;-88
2022/07/12 03:53:52;;;;;;;13.33;6.93;;;13.60;92.90;;;;;;5051362;28;20639;-88
2022/07/12 03:59:02;;;;;;;16.00;6.77;;;13.60;92.70;;;;;;5036378;28;20215;-88
2022/07/12 04:01:27;;;;;;;20.07;7.57;;;13.60;92.80;;;;;;5051565;28;20196;-89
2022/07/12 04:03:54;;;;;;;10.87;6.60;;;13.70;92.80;;;;;;5035846;28;20168;-89
2022/07/12 04:06:20;;;;;;;18.00;6.67;;;13.80;92.80;;;;;;5036128;28;20180;-89
2022/07/12 04:08:45;;;;;;;16.43;6.37;;;14.00;92.80;;;;;;5051645;28;20176;-89
2022/07/12 04:11:11;;;;;;;12.40;5.27;;;14.00;92.70;;;;;;5035896;28;20207;-89
2022/07/12 04:13:36;;;;;;;10.83;5.60;;;14.00;92.60;;;;;;5050870;28;20180;-89
2022/07/12 04:16:02;;;;;;;9.77;5.53;;;14.00;92.50;;;;;;5050847;28;20562;-88
2022/07/12 04:18:28;;;;;;;9.17;5.97;;;14.00;92.50;;;;;;5050937;28;20188;-89
2022/07/12 04:20:53;;;;;;;8.97;5.60;;;14.10;92.40;;;;;;5035640;28;20212;-88
2022/07/12 04:23:19;;;;;;;11.63;5.57;;;14.30;92.30;;;;;;5035529;28;20179;-88
2022/07/12 04:25:44;;;;;;;12.80;6.00;;;14.30;92.00;;;;;;5035523;28;20634;-89
2022/07/12 04:28:10;;;;;;;15.23;5.43;;;14.30;91.90;;;;;;5050704;28;20176;-88
2022/07/12 04:30:35;;;;;;;10.33;5.20;;;14.30;91.90;;;;;;5033570;28;20181;-88
2022/07/12 04:33:01;;;;;;;11.30;5.83;;;14.40;92.00;;;;;;5050636;28;20231;-89
2022/07/12 04:35:26;;;;;;;11.70;6.03;;;14.50;92.00;;;;;;5050567;28;20184;-88
2022/07/12 04:37:52;;;;;;;16.20;5.23;;;14.50;92.10;;;;;;5035512;28;20180;-88
2022/07/12 04:40:18;;;;;;;7.33;6.00;;;14.60;92.20;;;;;;5035157;28;20212;-89
2022/07/12 04:42:43;;;;;;;6.90;5.83;;;14.70;92.20;;;;;;5050436;28;20204;-89
2022/07/12 04:45:09;;;;;;;10.30;5.60;;;14.70;92.30;;;;;;5035120;28;20172;-88
2022/07/12 04:47:37;;;;;;;6.00;5.27;;;14.80;92.30;;;;;;5050571;28;20204;-89
2022/07/12 04:50:07;;;;;;;11.03;5.57;;;14.80;92.30;;;;;;5035171;28;20530;-89
2022/07/12 04:52:34;;;;;;;13.07;5.13;;;14.90;92.40;;;;;;5050457;28;20299;-88
2022/07/12 04:54:59;;;;;;;7.43;5.55;;;15.00;92.40;;;;;;5050403;28;20550;-88
2022/07/12 04:57:25;;;;;;;9.23;5.57;;;15.00;92.30;;;;;;5034914;28;20259;-89
2022/07/12 04:59:50;;;;;;;7.87;5.00;;;15.00;92.20;;;;;;5050243;28;20200;-88
2022/07/12 05:02:16;;;;;;;6.05;5.25;;;15.00;92.10;;;;;;5034937;28;20192;-88
2022/07/12 05:04:42;;;;;;;7.15;5.78;;;15.20;92.20;;;;;;5033607;28;20639;-88
2022/07/12 05:07:07;;;;;;;9.63;5.65;;;15.20;92.20;;;;;;5034771;28;20173;-89
2022/07/12 05:09:33;;;;;;;6.88;5.90;;;15.30;92.10;;;;;;5033582;28;20181;-87
2022/07/12 05:11:58;;;;;;;8.02;5.10;;;15.30;92.10;;;;;;5049929;28;20227;-89
2022/07/12 05:14:24;;;;;;;5.60;5.00;;;15.30;92.10;;;;;;5033393;28;20180;-89
2022/07/12 05:16:50;;;;;;;5.55;5.05;;;15.30;91.90;;;;;;5034683;28;20177;-89
2022/07/12 05:19:16;;;;;;;7.18;4.53;;;15.40;91.90;;;;;;5034500;28;20687;-89
2022/07/12 05:21:42;;;;;;;7.75;5.03;;;15.50;91.80;;;;;;5050000;28;20267;-88
2022/07/12 05:24:08;;;;;;;5.22;4.60;;;15.50;91.60;;;;;;5049800;28;20584;-88
2022/07/12 05:26:34;;;;;;;5.35;4.85;;;15.40;91.50;;;;;;5034332;28;20254;-88
2022/07/12 05:29:00;;;;;;;5.80;4.50;;;15.40;91.20;;;;;;5034275;28;20180;-88
2022/07/12 05:31:26;;;;;;;8.10;5.20;;;15.50;91.00;;;;;;5034128;28;20236;-88
2022/07/12 05:33:52;;;;;;;4.95;4.30;;;15.50;90.80;;;;;;5033319;28;20207;-88
2022/07/12 05:36:17;;;;;;;5.30;4.80;;;15.50;90.60;;;;;;5034326;28;20173;-87
2022/07/12 05:38:43;;;;;;;4.40;3.97;;;15.50;90.40;;;;;;5034405;28;20184;-88
2022/07/12 05:41:09;;;;;;;8.90;4.30;;;15.40;90.20;;;;;;5033941;28;20242;-87
2022/07/12 05:43:34;;;;;;;7.00;4.63;;;15.60;90.20;;;;;;5033220;28;20669;-88
2022/07/12 05:46:00;;;;;;;4.20;3.80;;;15.70;90.20;;;;;;5049407;28;20173;-88
2022/07/12 05:48:26;;;;;;;5.60;3.92;;;15.70;90.00;;;;;;5034554;28;20168;-88
2022/07/12 05:50:52;;;;;;;7.38;4.32;;;15.70;89.90;;;;;;5049290;28;20663;-87
2022/07/12 05:53:24;;;;;;;4.60;4.03;;;15.70;89.80;;;;;;5049341;28;20199;-87
2022/07/12 05:55:51;;;;;;;5.03;4.00;;;15.80;89.60;;;;;;5032843;28;20165;-87
2022/07/12 05:58:17;;;;;;;6.13;3.90;;;15.80;89.50;;;;;;5049616;28;20192;-87
2022/07/12 06:00:44;;;;;;;5.60;3.75;;;15.80;89.20;;;;;;5033900;28;20287;-88
2022/07/12 06:03:10;;;;;;;4.47;3.70;;;15.90;88.90;;;;;;5049627;28;20200;-88
2022/07/12 06:05:35;;;;;;;4.70;3.63;;;16.00;89.00;;;;;;5034080;28;20169;-88
2022/07/12 06:08:01;;;;;;;3.38;3.00;;;16.00;88.80;;;;;;5034129;28;20223;-87
2022/07/12 06:10:27;;;;;;;7.10;4.10;;;16.10;88.60;;;;;;5032723;28;20177;-88
2022/07/12 06:12:53;;;;;;;4.50;4.10;;;16.20;88.20;;;;;;5033835;28;20242;-88
2022/07/12 06:15:19;;;;;;;5.10;4.70;;;16.20;88.00;;;;;;5034187;28;20252;-87
2022/07/12 06:17:44;;;;;;;5.20;4.70;;;16.40;87.90;;;;;;5049217;28;20188;-87
2022/07/12 06:20:10;;;;;;;6.05;4.50;;;16.20;87.50;;;;;;5049098;28;20204;-87
2022/07/12 06:22:36;;;;;;;5.05;4.55;;;16.20;87.20;;;;;;5049015;28;20199;-87
2022/07/12 06:25:02;;;;;;;8.75;4.93;;;16.20;87.10;;;;;;5048958;28;20173;-87
2022/07/12 06:27:28;;;;;;;10.73;4.50;;;16.30;87.10;;;;;;5033409;28;20177;-87
2022/07/12 06:29:53;;;;;;;5.13;4.63;;;16.40;87.20;;;;;;5033511;28;20260;-87
2022/07/12 06:32:19;;;;;;;7.15;4.65;;;16.40;87.00;;;;;;5032282;28;20238;-87
2022/07/12 06:34:44;;;;;;;5.32;4.55;;;16.40;86.80;;;;;;5032261;28;20609;-87
2022/07/12 06:37:12;;;;;;;5.78;4.75;;;16.50;86.80;;;;;;5033630;28;20208;-87
2022/07/12 06:39:38;;;;;;;5.20;4.38;;;16.60;86.40;;;;;;5033220;28;20196;-87
2022/07/12 06:42:04;;;;;;;6.70;4.13;;;16.60;86.30;;;;;;5033582;28;20720;-87
2022/07/12 06:44:31;;;;;;;6.15;3.80;;;16.60;86.40;;;;;;5049692;28;20172;-87
2022/07/12 06:46:57;;;;;;;6.03;2.92;;;16.60;85.90;;;;;;5033613;28;20173;-87
2022/07/12 06:49:23;;;;;;;3.38;2.90;;;16.60;85.20;;;;;;5048591;28;20599;-87
2022/07/12 06:51:48;;;;;;;3.25;2.95;;;16.70;85.20;;;;;;5033322;28;20193;-88
2022/07/12 06:54:14;;;;;;;3.33;2.78;;;16.70;84.40;;;;;;5035329;28;20347;-87
2022/07/12 06:56:40;;;;;;;4.07;2.92;;;16.80;84.50;;;;;;5037148;28;20173;-87
2022/07/12 06:59:05;;;;;;;4.70;2.40;;;16.90;84.40;;;;;;5052460;28;20177;-87
2022/07/12 07:01:31;;;;;;;3.30;2.50;;;16.90;84.30;;;;;;5035761;28;20284;-87
2022/07/12 07:03:56;;;;;;;3.40;2.90;;;16.80;83.90;;;;;;5037084;28;20179;-87
2022/07/12 07:06:22;;;;;;;3.15;2.72;;;16.80;84.10;;;;;;5052585;28;20180;-87
2022/07/12 07:08:47;;;;;;;7.85;3.58;;;16.90;84.70;;;;;;5037076;28;20169;-87
2022/07/12 07:11:13;;;;;;;4.13;3.83;;;17.00;84.70;;;;;;5052391;28;20192;-87
2022/07/12 07:13:38;;;;;;;6.47;4.32;;;17.00;84.40;;;;;;5035928;28;20173;-87
2022/07/12 07:16:05;;;;;;;6.50;4.40;;;17.00;84.40;;;;;;5052214;28;20279;-87
2022/07/12 07:18:31;;;;;;;3.88;3.47;;;16.90;85.00;;;;;;5052363;28;20199;-87
2022/07/12 07:20:56;;;;;;;4.60;3.88;;;17.00;84.90;;;;;;5036825;28;20662;-87
2022/07/12 07:23:22;;;;;;;10.23;4.05;;;16.90;84.70;;;;;;5035509;28;20648;-87
2022/07/12 07:25:47;;;;;;;4.32;3.47;;;16.90;84.70;;;;;;5036529;28;20200;-86
2022/07/12 07:28:13;;;;;;;4.60;3.08;;;17.10;84.40;;;;;;5035504;28;20175;-87
2022/07/12 07:30:54;;;;;;;5.15;3.53;;;17.10;84.40;;;;;;5036501;28;20207;-88
2022/07/12 07:33:24;;;;;;;6.35;3.38;;;17.10;83.50;;;;;;5051984;28;20168;-87
2022/07/12 07:35:51;;;;;;;3.25;2.95;;;17.40;83.80;;;;;;5051743;28;20181;-87
2022/07/12 07:38:18;;;;;;;6.13;3.00;;;17.30;83.00;;;;;;5051826;28;20607;-87
2022/07/12 07:40:44;;;;;;;5.82;3.35;;;17.30;83.10;;;;;;5051635;28;20553;-86
2022/07/12 07:43:10;;;;;;;4.32;3.38;;;17.40;83.10;;;;;;5051630;28;20196;-86
2022/07/12 07:45:36;;;;;;;3.47;3.00;;;17.20;82.90;;;;;;5051897;28;20172;-86
2022/07/12 07:48:03;;;;;;;5.38;3.45;;;17.30;83.30;;;;;;5051512;28;20176;-87
2022/07/12 07:50:29;;;;;;;4.60;3.40;;;17.40;83.00;;;;;;5036040;28;20251;-88
2022/07/12 07:52:55;;;;;;;3.28;2.65;;;17.50;82.90;;;;;;5051387;28;20642;-87
2022/07/12 07:55:21;;;;;;;5.75;2.40;;;17.50;81.90;;;;;;5036261;28;20200;-88
2022/07/12 07:57:47;;;;;;;3.30;2.30;;;17.50;82.40;;;;;;5035054;28;20548;-88
2022/07/12 08:00:13;;;;;;;2.60;2.40;;;17.60;82.30;;;;;;5051377;28;20276;-88
2022/07/12 08:02:40;;;;;;;2.72;2.15;;;17.80;82.40;;;;;;5051158;28;20185;-87
2022/07/12 08:05:06;;;;;;;2.97;2.10;;;17.70;81.60;;;;;;5050286;28;20264;-88
2022/07/12 08:07:32;;;;;;;5.03;2.58;;;17.70;81.80;;;;;;5035976;28;20164;-88
2022/07/12 08:09:57;;;;;;;2.47;2.22;;;17.70;80.90;;;;;;5051062;28;20184;-87
2022/07/12 08:12:23;;;;;;;2.72;2.50;;;18.00;82.10;;;;;;5034445;28;20200;-88
2022/07/12 08:14:48;;;;;;;2.90;2.35;;;18.30;81.40;;;;;;5035949;28;20172;-88
2022/07/12 08:17:14;;;;;;;4.75;2.28;;;18.40;80.40;;;;;;5035698;28;20257;-87
2022/07/12 08:19:39;;;;;;;5.20;3.00;;;18.30;79.50;;;;;;5035785;28;20197;-88
2022/07/12 08:22:05;;;;;;;2.40;2.15;;;18.30;80.20;;;;;;5035651;28;20258;-87
2022/07/12 08:24:30;;;;;;;2.65;2.25;;;18.30;79.20;;;;;;5035729;28;20196;-88
2022/07/12 08:26:56;;;;;;;4.78;2.28;;;18.20;80.30;;;;;;5035539;28;20171;-88
2022/07/12 08:29:22;;;;;;;3.35;2.70;;;18.30;79.40;;;;;;5035225;28;20272;-89
2022/07/12 08:31:47;;;;;;;2.08;1.67;;;18.70;79.50;;;;;;5051600;28;20616;-88
2022/07/12 08:34:13;;;;;;;3.00;2.10;;;18.90;79.40;;;;;;5051235;28;20203;-88
2022/07/12 08:36:39;;;;;;;2.35;2.10;;;19.40;78.70;;;;;;5035757;28;20204;-87
2022/07/12 08:39:04;;;;;;;3.03;1.95;;;19.40;77.90;;;;;;5050616;28;20665;-87
2022/07/12 08:41:30;;;;;;;3.97;1.90;;;19.80;77.60;;;;;;5035595;28;20235;-87
2022/07/12 08:43:56;;;;;;;4.70;1.92;;;19.80;76.20;;;;;;5035201;28;20171;-86
2022/07/12 08:46:22;;;;;;;5.18;1.85;;;20.10;76.30;;;;;;5035148;28;20186;-87
2022/07/12 08:48:47;;;;;;;2.00;1.80;;;20.20;75.50;;;;;;5050543;28;20180;-87
2022/07/12 08:51:17;;;;;;;3.42;2.08;;;20.30;74.30;;;;;;5050224;28;20200;-87
2022/07/12 08:53:43;;;;;;;2.20;2.00;;;19.90;73.50;;;;;;5034829;28;20639;-87
2022/07/12 08:56:37;;;;;;;2.30;1.88;;;19.40;76.20;;;;;;5035223;28;20184;-87
2022/07/12 08:59:15;;;;;;;2.40;2.20;;;19.60;76.10;;;;;;5033593;28;20553;-87
2022/07/12 09:01:51;;;;;;;4.93;2.05;;;19.50;75.00;;;;;;5050154;28;20236;-87
2022/07/12 09:04:23;;;;;;;2.42;2.08;;;20.20;77.80;;;;;;5050438;28;20196;-88
2022/07/12 09:06:49;;;;;;;1.77;1.67;;;20.50;75.00;;;;;;5035312;28;20193;-87
2022/07/12 09:09:32;;;;;;;3.28;2.05;;;20.70;72.60;;;;;;5034551;28;20177;-87
2022/07/12 09:11:58;;;;;;;2.47;1.75;;;20.40;71.40;;;;;;5034609;28;20192;-88
2022/07/12 09:14:24;;;;;;;2.60;1.88;;;20.50;74.30;;;;;;5034662;28;20687;-87
2022/07/12 09:17:09;;;;;;;2.03;1.35;;;20.60;70.50;;;;;;5049912;28;20250;-87
2022/07/12 09:19:36;;;;;;;2.35;1.27;;;20.80;73.40;;;;;;5033226;28;20250;-88
2022/07/12 09:22:02;;;;;;;2.03;1.40;;;21.20;72.00;;;;;;5049604;28;20192;-87
2022/07/12 09:24:28;;;;;;;1.50;1.40;;;21.50;70.60;;;;;;5034195;28;20175;-89
2022/07/12 09:27:00;;;;;;;4.15;1.60;;;21.70;70.10;;;;;;5049620;28;20175;-88
2022/07/12 09:29:25;;;;;;;1.75;1.52;;;21.70;69.70;;;;;;5049510;28;20548;-89
2022/07/12 09:37:21;;;;;;;1.45;1.35;;;21.60;72.20;;;;;;5034530;28;20226;-88
2022/07/12 09:39:53;;;;;;;2.70;1.40;;;22.20;69.10;;;;;;5049105;28;20248;-88
2022/07/12 09:42:19;;;;;;;1.50;1.40;;;21.60;70.40;;;;;;5033970;28;20268;-89
2022/07/12 09:44:45;;;;;;;1.95;1.50;;;21.40;70.40;;;;;;5049415;28;20740;-88
2022/07/12 09:47:13;;;;;;;2.17;1.40;;;21.20;71.70;;;;;;5033078;28;20177;-88
2022/07/12 09:49:43;;;;;;;1.40;1.30;;;21.50;72.10;;;;;;5049529;28;20227;-87
2022/07/12 09:52:12;;;;;;;2.03;1.20;;;21.90;70.00;;;;;;5049574;28;20207;-87
2022/07/12 09:54:41;;;;;;;1.40;1.20;;;21.70;70.20;;;;;;5049044;28;20657;-86
2022/07/12 09:57:30;;;;;;;1.30;1.20;;;21.80;69.80;;;;;;5050084;28;20227;-87
2022/07/12 09:59:58;;;;;;;1.40;1.30;;;22.10;69.10;;;;;;5048987;28;20197;-88
2022/07/12 10:02:24;;;;;;;1.30;1.20;;;22.20;69.30;;;;;;5033629;28;20210;-88
2022/07/12 10:04:51;;;;;;;1.52;1.35;;;22.40;68.10;;;;;;5048881;28;20177;-89
2022/07/12 10:07:17;;;;;;;1.42;1.33;;;22.40;69.10;;;;;;5032337;28;20172;-88
2022/07/12 10:09:45;;;;;;;1.50;1.38;;;22.70;69.60;;;;;;5049013;28;20183;-88
2022/07/12 10:12:12;;;;;;;1.20;1.17;;;23.00;66.90;;;;;;5048958;28;20250;-88
2022/07/12 10:14:39;;;;;;;1.42;1.30;;;23.00;65.50;;;;;;5032255;28;20202;-88
2022/07/12 10:17:09;;;;;;;1.38;1.17;;;22.90;67.00;;;;;;5048747;28;20180;-88
2022/07/12 10:19:36;;;;;;;2.63;1.30;;;22.80;68.50;;;;;;5048729;28;20197;-88
2022/07/12 10:22:06;;;;;;;1.33;1.20;;;22.80;69.90;;;;;;5049706;28;20216;-88
2022/07/12 10:24:45;;;;;;;1.75;1.48;;;23.20;66.30;;;;;;5032567;28;20164;-88
2022/07/12 10:27:14;;;;;;;1.02;1.02;;;22.70;67.40;;;;;;5049608;28;20239;-88
2022/07/12 10:29:44;;;;;;;1.50;1.40;;;23.00;68.10;;;;;;5054643;28;20229;-86
2022/07/12 10:32:25;;;;;;;1.27;1.17;;;22.80;68.10;;;;;;5039877;28;20566;-88
2022/07/12 10:35:20;;;;;;;1.48;1.10;;;23.00;66.60;;;;;;5055760;28;20653;-87
2022/07/12 10:38:11;;;;;;;1.42;1.33;;;23.20;66.10;;;;;;5038058;28;20562;-88
2022/07/12 10:40:37;;;;;;;1.48;1.33;;;23.30;66.40;;;;;;5055788;28;20208;-86
2022/07/12 10:43:06;;;;;;;1.90;1.38;;;23.60;65.10;;;;;;5055935;28;20200;-86
2022/07/12 10:45:38;;;;;;;5.47;1.27;;;23.40;67.70;;;;;;5055467;28;20634;-88
2022/07/12 10:48:13;;;;;;;1.70;1.60;;;23.80;65.80;;;;;;5056485;28;20694;-90
2022/07/12 10:50:43;;;;;;;2.55;1.38;;;23.30;65.70;;;;;;5055465;28;20559;-88
2022/07/12 10:53:33;;;;;;;3.28;1.48;;;23.20;69.00;;;;;;5043116;28;20685;-89
2022/07/12 10:56:24;;;;;;;1.60;1.27;;;23.50;67.10;;;;;;5054709;28;20279;-89
2022/07/12 10:58:59;;;;;;;1.55;1.42;;;22.90;68.20;;;;;;5054961;28;20177;-89
2022/07/12 11:01:27;;;;;;;2.25;2.05;;;23.60;67.10;;;;;;5054920;28;20215;-88
2022/07/12 11:04:10;;;;;;;2.58;1.70;;;23.20;66.20;;;;;;5039518;28;20693;-88
2022/07/12 11:06:38;;;;;;;1.80;1.58;;;23.20;66.80;;;;;;5054879;28;20184;-89
2022/07/12 11:09:05;;;;;;;1.85;1.45;;;23.70;66.30;;;;;;5054399;28;20169;-89
2022/07/12 11:11:34;;;;;;;3.08;1.65;;;24.20;63.60;;;;;;5039274;28;20558;-89
2022/07/12 11:14:01;;;;;;;1.67;1.58;;;23.80;62.00;;;;;;5038303;28;20439;-89
2022/07/12 11:16:29;;;;;;;1.80;1.17;;;23.30;64.10;;;;;;5054815;28;20691;-89
2022/07/12 11:18:55;;;;;;;1.77;1.23;;;23.30;65.70;;;;;;5038150;28;20179;-89
2022/07/12 11:21:21;;;;;;;1.60;1.50;;;23.30;66.10;;;;;;5055049;28;20212;-89
2022/07/12 11:23:47;;;;;;;1.50;1.40;;;23.60;65.30;;;;;;5054930;28;20223;-89
2022/07/12 11:26:14;;;;;;;1.45;1.35;;;23.50;66.40;;;;;;5038490;28;20172;-89
2022/07/12 11:28:41;;;;;;;2.10;1.90;;;23.20;67.20;;;;;;5039495;28;20179;-89
2022/07/12 11:31:08;;;;;;;1.70;1.60;;;23.10;67.60;;;;;;5039360;28;20222;-89
2022/07/12 11:33:39;;;;;;;2.65;1.60;;;23.50;66.00;;;;;;5039234;28;20173;-89
2022/07/12 11:36:09;;;;;;;1.60;1.50;;;23.80;65.90;;;;;;5039277;28;20165;-89
2022/07/12 11:38:36;;;;;;;2.13;1.73;;;24.00;64.50;;;;;;5039492;28;20173;-90
2022/07/12 11:41:03;;;;;;;1.50;1.40;;;24.20;64.40;;;;;;5051570;28;20212;-89
2022/07/12 11:43:30;;;;;;;1.42;1.33;;;24.30;63.90;;;;;;5051391;28;20169;-89
2022/07/12 11:45:57;;;;;;;1.50;1.40;;;24.50;64.80;;;;;;5051510;28;20616;-89
2022/07/12 11:48:23;;;;;;;2.20;1.65;;;24.50;63.70;;;;;;5035913;28;20234;-89
2022/07/12 11:50:51;;;;;;;1.27;1.17;;;24.10;64.10;;;;;;5051395;28;20177;-89
2022/07/12 11:53:22;;;;;;;1.88;1.67;;;24.30;64.90;;;;;;5034656;28;20176;-88
2022/07/12 11:55:53;;;;;;;4.57;1.35;;;23.70;66.00;;;;;;5051324;28;20176;-89
2022/07/12 11:58:19;;;;;;;1.70;1.60;;;24.10;66.30;;;;;;5034598;28;20181;-89
2022/07/12 12:00:47;;;;;;;1.70;1.48;;;24.00;66.20;;;;;;5051106;28;20630;-89
2022/07/12 12:03:14;;;;;;;1.77;1.40;;;24.20;63.60;;;;;;5034411;28;20221;-89
2022/07/12 12:05:40;;;;;;;3.75;1.65;;;24.30;63.90;;;;;;5051032;28;20169;-89
2022/07/12 12:08:12;;;;;;;2.35;1.88;;;24.30;64.40;;;;;;5050987;28;20211;-89
2022/07/12 12:10:39;;;;;;;1.75;1.55;;;24.60;63.70;;;;;;5035509;28;20173;-88
2022/07/12 12:13:16;;;;;;;1.80;1.70;;;24.50;66.10;;;;;;5035439;28;20212;-89
2022/07/12 12:15:50;;;;;;;2.35;1.63;;;24.00;64.10;;;;;;5034263;28;20259;-89
2022/07/12 12:18:16;;;;;;;1.90;1.80;;;23.70;67.50;;;;;;5050883;28;20653;-88
2022/07/12 12:20:41;;;;;;;3.28;1.92;;;22.80;68.20;;;;;;5050789;28;20196;-89
2022/07/12 12:23:18;;;;;;;2.83;2.33;;;23.50;68.70;;;;;;5050710;28;20185;-89
2022/07/12 12:25:45;;;;;;;3.08;1.90;;;23.50;68.00;;;;;;5050659;28;20275;-89
2022/07/12 12:28:12;;;;;;;2.80;2.03;;;23.90;67.50;;;;;;5050540;28;20323;-89
2022/07/12 12:30:54;;;;;;;2.70;1.85;;;24.20;67.20;;;;;;5035147;28;20543;-89
2022/07/12 12:33:39;;;;;;;1.88;1.73;;;24.70;65.30;;;;;;5050411;28;20234;-89
2022/07/12 12:36:28;;;;;;;2.72;1.92;;;25.00;62.80;;;;;;5035081;28;20176;-90
2022/07/12 12:38:58;;;;;;;2.75;2.55;;;24.70;63.60;;;;;;5050446;28;20264;-88
2022/07/12 12:41:26;;;;;;;2.00;1.90;;;24.20;61.40;;;;;;5050380;28;20239;-89
2022/07/12 12:44:04;;;;;;;2.25;1.63;;;23.70;65.50;;;;;;5033729;28;20196;-89
2022/07/12 12:46:55;;;;;;;2.30;1.73;;;24.10;66.90;;;;;;5034824;28;20271;-89
2022/07/12 12:49:48;;;;;;;3.35;2.00;;;24.10;68.10;;;;;;5050271;28;20268;-90
2022/07/12 12:52:14;;;;;;;2.60;1.70;;;24.80;64.60;;;;;;5034319;28;20184;-89
2022/07/12 12:54:40;;;;;;;2.50;2.17;;;25.30;62.70;;;;;;5050144;28;20187;-89
2022/07/12 12:57:07;;;;;;;1.90;1.80;;;24.30;63.50;;;;;;5034691;28;20544;-89